createdAt,value
2023-01-29T00:02:08.240Z,2.40
2023-01-29T00:04:35.043Z,2.10
2023-01-29T00:07:01.891Z,2.00
2023-01-29T00:09:31.480Z,2.60
2023-01-29T00:11:58.881Z,2.50
2023-01-29T00:14:27.377Z,2.90
2023-01-29T00:16:54.282Z,2.90
2023-01-29T00:19:21.306Z,2.10
2023-01-29T00:21:48.646Z,2.70
2023-01-29T00:24:15.730Z,2.30
2023-01-29T00:26:43.304Z,2.90
2023-01-29T00:29:10.958Z,2.30
2023-01-29T00:31:38.284Z,2.00
2023-01-29T00:34:07.349Z,3.00
2023-01-29T00:36:34.319Z,3.60
2023-01-29T00:39:03.670Z,3.60
2023-01-29T00:41:51.367Z,3.30
2023-01-29T00:44:36.971Z,3.00
2023-01-29T00:47:04.239Z,2.60
2023-01-29T00:49:32.455Z,2.70
2023-01-29T00:52:18.487Z,3.30
2023-01-29T00:54:45.343Z,3.00
2023-01-29T00:57:12.234Z,2.30
2023-01-29T00:59:39.655Z,2.80
2023-01-29T01:02:25.469Z,2.40
2023-01-29T01:04:52.330Z,3.20
2023-01-29T01:07:19.242Z,2.20
2023-01-29T01:10:04.705Z,2.50
2023-01-29T01:12:32.323Z,2.20
2023-01-29T01:14:59.221Z,2.60
2023-01-29T01:17:26.577Z,2.10
2023-01-29T01:19:53.769Z,1.80
2023-01-29T01:22:21.027Z,2.60
2023-01-29T01:24:48.672Z,2.50
2023-01-29T01:27:15.546Z,2.40
2023-01-29T01:29:43.319Z,2.70
2023-01-29T01:32:10.510Z,2.50
2023-01-29T01:34:37.890Z,2.40
2023-01-29T01:37:04.721Z,2.70
2023-01-29T01:39:32.554Z,2.50
2023-01-29T01:41:59.366Z,2.30
2023-01-29T01:44:56.007Z,2.80
2023-01-29T01:47:39.089Z,2.80
2023-01-29T01:50:12.175Z,2.50
2023-01-29T01:52:41.894Z,2.90
2023-01-29T01:57:36.501Z,1.70
2023-01-29T02:00:10.258Z,2.70
2023-01-29T06:33:46.640Z,6.10
2023-01-29T06:36:13.574Z,6.10
2023-01-29T06:38:41.838Z,5.30
2023-01-29T06:41:13.037Z,4.70
2023-01-29T06:43:39.849Z,4.80
2023-01-29T06:46:07.777Z,4.80
2023-01-29T06:48:35.519Z,5.20
2023-01-29T06:51:06.792Z,4.10
2023-01-29T06:53:33.975Z,4.90
2023-01-29T06:56:01.101Z,5.90
2023-01-29T06:58:27.906Z,5.40
2023-01-29T07:00:54.718Z,4.70
2023-01-29T07:03:21.984Z,4.60
2023-01-29T07:05:53.039Z,7.40
2023-01-29T07:08:22.755Z,6.10
2023-01-29T07:13:17.100Z,4.00
2023-01-29T07:15:44.759Z,4.80
2023-01-29T07:18:12.741Z,4.40
2023-01-29T07:20:40.578Z,5.60
2023-01-29T07:23:09.176Z,6.30
2023-01-29T07:25:35.934Z,5.20
2023-01-29T07:28:03.342Z,4.70
2023-01-29T07:30:30.281Z,6.20
2023-01-29T07:33:16.134Z,5.80
2023-01-29T07:35:43.645Z,5.40
2023-01-29T07:38:10.864Z,5.60
2023-01-29T07:40:39.219Z,6.00
2023-01-29T07:43:07.616Z,5.60
2023-01-29T07:45:35.545Z,6.00
2023-01-29T07:48:04.352Z,6.10
2023-01-29T07:50:31.812Z,5.30
2023-01-29T07:52:58.708Z,6.40
2023-01-29T07:55:25.613Z,6.60
2023-01-29T07:57:59.650Z,4.60
2023-01-29T08:00:26.704Z,4.40
2023-01-29T08:02:53.590Z,5.10
2023-01-29T08:05:20.642Z,5.40
2023-01-29T08:08:05.703Z,5.10
2023-01-29T08:10:35.280Z,4.10
2023-01-29T08:13:03.228Z,4.40
2023-01-29T08:15:30.542Z,4.40
2023-01-29T08:17:58.545Z,4.10
2023-01-29T08:20:25.925Z,4.50
2023-01-29T08:23:03.051Z,4.20
2023-01-29T08:25:30.302Z,4.90
2023-01-29T08:27:58.118Z,4.60
2023-01-29T08:30:29.301Z,3.60
2023-01-29T08:32:56.375Z,3.30
2023-01-29T08:35:23.533Z,4.60
2023-01-29T08:37:54.816Z,4.40
2023-01-29T08:40:21.923Z,4.40
2023-01-29T08:42:48.951Z,4.40
2023-01-29T08:45:16.242Z,4.40
2023-01-29T08:47:48.220Z,5.20
2023-01-29T08:50:16.729Z,4.80
2023-01-29T08:52:44.606Z,4.40
2023-01-29T08:55:12.164Z,4.40
2023-01-29T08:57:39.280Z,4.80
2023-01-29T09:00:07.092Z,5.00
2023-01-29T09:02:34.016Z,4.50
2023-01-29T09:05:01.383Z,4.00
2023-01-29T09:07:29.369Z,3.80
2023-01-29T09:09:56.450Z,4.40
2023-01-29T09:12:23.742Z,4.60
2023-01-29T09:14:55.172Z,4.40
2023-01-29T09:17:21.985Z,4.20
2023-01-29T09:19:48.709Z,4.70
2023-01-29T09:22:15.661Z,4.20
2023-01-29T09:24:42.555Z,4.60
2023-01-29T09:27:10.122Z,4.00
2023-01-29T09:29:37.847Z,4.40
2023-01-29T09:32:05.183Z,3.60
2023-01-29T09:34:34.408Z,4.70
2023-01-29T09:37:01.569Z,3.70
2023-01-29T09:39:28.363Z,4.00
2023-01-29T09:42:20.924Z,3.30
2023-01-29T09:45:12.943Z,3.80
2023-01-29T09:47:40.845Z,5.10
2023-01-29T09:50:37.019Z,4.30
2023-01-29T09:53:29.764Z,4.20
2023-01-29T09:56:01.362Z,3.90
2023-01-29T09:58:36.206Z,4.00
2023-01-29T10:01:24.306Z,4.30
2023-01-29T10:04:01.223Z,4.30
2023-01-29T10:06:51.294Z,4.20
2023-01-29T12:12:42.766Z,4.50
2023-01-29T12:15:17.413Z,4.20
2023-01-29T12:17:47.918Z,4.50
2023-01-29T12:20:18.476Z,4.50
2023-01-29T12:23:03.021Z,5.50
2023-01-29T12:25:39.768Z,4.50
2023-01-29T12:28:39.313Z,4.10
2023-01-29T12:31:11.518Z,4.10
2023-01-29T12:33:43.903Z,3.90
2023-01-29T12:36:13.728Z,3.70
2023-01-29T12:41:13.924Z,3.10
2023-01-29T12:43:48.712Z,3.20
2023-01-29T12:46:43.385Z,3.60
2023-01-29T12:49:16.920Z,4.00
2023-01-29T12:52:15.026Z,4.00
2023-01-29T12:55:13.254Z,3.40
2023-01-29T12:57:46.228Z,3.30
2023-01-29T13:00:43.761Z,3.80
2023-01-29T13:03:17.427Z,3.50
2023-01-29T13:05:47.332Z,3.60
2023-01-29T13:08:22.869Z,3.30
2023-01-29T13:10:53.680Z,4.10
2023-01-29T13:13:36.537Z,3.70
2023-01-29T13:16:06.696Z,3.70
2023-01-29T13:18:49.737Z,4.30
2023-01-29T13:21:18.782Z,3.40
2023-01-29T13:23:47.943Z,3.90
2023-01-29T13:26:18.348Z,3.50
2023-01-29T13:28:45.414Z,3.30
2023-01-29T13:31:21.889Z,4.10
2023-01-29T13:33:55.702Z,4.00
2023-01-29T13:36:30.005Z,3.50
2023-01-29T13:39:07.499Z,3.60
2023-01-29T13:41:38.923Z,3.20
2023-01-29T13:44:07.471Z,3.50
2023-01-29T13:46:34.612Z,3.70
2023-01-29T13:49:05.389Z,3.50
2023-01-29T13:51:35.532Z,4.00
2023-01-29T13:54:05.008Z,4.10
2023-01-29T13:56:34.988Z,3.00
2023-01-29T13:59:06.129Z,3.50
2023-01-29T14:01:48.491Z,3.50
2023-01-29T14:04:26.802Z,3.50
2023-01-29T14:06:58.540Z,4.10
2023-01-29T14:09:38.308Z,3.90
2023-01-29T14:12:25.815Z,4.00
2023-01-29T14:14:56.753Z,3.70
2023-01-29T14:17:24.545Z,4.00
2023-01-29T14:19:53.204Z,3.60
2023-01-29T14:22:27.133Z,3.10
2023-01-29T14:24:55.342Z,3.60
2023-01-29T14:27:23.259Z,3.30
2023-01-29T14:29:51.810Z,3.50
2023-01-29T14:32:20.274Z,3.20
2023-01-29T14:35:03.356Z,3.40
2023-01-29T14:40:15.545Z,2.80
2023-01-29T14:42:48.277Z,3.60
2023-01-29T14:45:31.869Z,3.20
2023-01-29T14:48:02.083Z,3.10
2023-01-29T14:50:29.371Z,3.20
2023-01-29T14:53:05.102Z,3.50
2023-01-29T14:58:04.499Z,3.20
2023-01-29T15:00:39.826Z,4.80
2023-01-29T15:03:13.659Z,2.80
2023-01-29T15:05:40.673Z,2.70
2023-01-29T15:08:19.640Z,2.90
2023-01-29T15:11:13.794Z,3.30
2023-01-29T15:14:24.182Z,3.20
2023-01-29T15:16:53.471Z,3.10
2023-01-29T15:19:25.198Z,2.90
2023-01-29T15:22:15.173Z,3.80
2023-01-29T15:24:43.191Z,3.20
2023-01-29T15:27:13.325Z,3.30
2023-01-29T15:29:41.205Z,3.00
2023-01-29T15:32:12.663Z,3.40
2023-01-29T15:34:42.805Z,3.60
2023-01-29T15:37:27.786Z,3.40
2023-01-29T15:39:54.941Z,3.20
2023-01-29T15:42:25.753Z,3.50
2023-01-29T15:44:54.679Z,3.00
2023-01-29T15:47:27.407Z,2.90
2023-01-29T15:49:54.513Z,2.90
2023-01-29T15:52:24.067Z,3.70
2023-01-29T15:54:51.474Z,3.50
2023-01-29T15:57:20.704Z,3.20
2023-01-29T15:59:51.764Z,3.20
2023-01-29T16:02:24.338Z,3.30
2023-01-29T16:04:53.991Z,3.30
2023-01-29T16:07:24.944Z,3.90
2023-01-29T16:09:52.519Z,3.90
2023-01-29T16:12:19.417Z,3.80
2023-01-29T16:14:46.309Z,3.00
2023-01-29T16:17:30.293Z,3.50
2023-01-29T16:19:59.678Z,4.00
2023-01-29T16:22:29.219Z,3.70
2023-01-29T16:24:56.756Z,3.40
2023-01-29T16:27:23.745Z,3.90
2023-01-29T16:29:50.504Z,3.70
2023-01-29T16:32:18.493Z,3.80
2023-01-29T16:34:45.358Z,4.20
2023-01-29T16:37:20.488Z,3.60
2023-01-29T16:39:48.249Z,2.80
2023-01-29T16:42:21.594Z,3.30
2023-01-29T16:45:02.152Z,3.30
2023-01-29T16:47:31.617Z,3.30
2023-01-29T16:50:00.975Z,3.30
2023-01-29T16:52:33.359Z,3.20
2023-01-29T16:55:21.605Z,3.00
2023-01-29T16:57:54.201Z,3.00
2023-01-29T17:00:28.044Z,3.20
2023-01-29T17:03:05.041Z,3.40
2023-01-29T17:05:34.767Z,2.80
2023-01-29T17:08:01.639Z,3.40
2023-01-29T17:10:29.287Z,2.50
2023-01-29T17:13:07.920Z,2.70
2023-01-29T17:15:46.223Z,3.00
2023-01-29T17:18:24.017Z,2.70
2023-01-29T17:20:53.106Z,2.80
2023-01-29T17:23:20.741Z,2.70
2023-01-29T17:25:47.698Z,3.00
2023-01-29T17:28:16.225Z,2.50
2023-01-29T17:30:46.388Z,3.00
2023-01-29T17:33:22.899Z,2.50
2023-01-29T17:35:50.148Z,3.00
2023-01-29T17:38:25.939Z,2.40
2023-01-29T17:40:57.560Z,2.40
2023-01-29T17:43:24.511Z,2.30
2023-01-29T17:45:51.535Z,2.50
2023-01-29T17:48:27.064Z,2.60
2023-01-29T17:50:56.410Z,2.40
2023-01-29T17:53:24.820Z,2.60
2023-01-29T17:55:53.566Z,2.50
2023-01-29T17:58:22.341Z,2.40
2023-01-29T22:13:05.447Z,3.30
2023-01-29T22:15:34.556Z,3.90
2023-01-29T22:18:01.369Z,3.30
2023-01-29T22:20:30.792Z,2.70
2023-01-29T22:22:59.489Z,2.70
2023-01-29T22:25:26.668Z,3.20
2023-01-29T22:27:54.032Z,2.50
2023-01-29T22:30:21.793Z,2.50
2023-01-29T22:32:49.348Z,2.60
2023-01-29T22:35:16.830Z,3.20
2023-01-29T22:37:45.159Z,4.10
2023-01-29T22:46:18.538Z,9.40
2023-01-29T22:48:46.156Z,5.40
2023-01-29T22:51:13.933Z,2.80
2023-01-29T22:53:49.156Z,1.90
2023-01-29T22:56:15.983Z,1.70
2023-01-29T22:58:42.840Z,2.90
2023-01-29T23:01:10.140Z,2.40
2023-01-29T23:03:37.151Z,2.70
2023-01-29T23:06:04.033Z,1.80
2023-01-29T23:08:32.634Z,2.30
2023-01-29T23:11:14.227Z,2.40
2023-01-29T23:13:43.058Z,4.20
2023-01-29T23:16:10.623Z,2.60
2023-01-29T23:26:44.462Z,2.10
2023-01-29T23:29:11.335Z,2.20
2023-01-29T23:31:38.705Z,2.20
2023-01-29T23:34:05.776Z,1.50
2023-01-29T23:36:32.826Z,2.20
2023-01-29T23:38:59.579Z,1.80
2023-01-29T23:41:26.919Z,1.60
2023-01-29T23:51:33.176Z,2.00
2023-01-29T23:54:00.684Z,1.80
2023-01-29T23:56:27.685Z,2.10
2023-01-29T23:58:55.754Z,1.50
